Time;durP1;ratioP1;P1;durP2;ratioP2;P2;SDS_P1;SDS_P2;PMS_P1;PMS_P2;Temp;Humidity;BMP_temperature;BMP_pressure;BME280_temperature;BME280_humidity;BME280_pressure;Samples;Min_cycle;Max_cycle;Signal;HPM_P1;HPM_P2
2023/03/10 04:59:01;;;;;;;9.80;6.30;;;;;;;7.41;74.91;99082.28;5604590;31;126373;-53
2023/03/10 05:02:04;;;;;;;12.35;6.87;;;;;;;7.41;74.91;99082.28;5582702;31;34087;-53
2023/03/10 05:05:07;;;;;;;11.93;6.72;;;;;;;6.94;75.58;99077.91;5582797;31;33610;-53
2023/03/10 05:08:11;;;;;;;13.93;6.60;;;;;;;6.98;82.97;99081.59;5582923;31;34743;-53
2023/03/10 05:11:13;;;;;;;13.68;6.90;;;;;;;7.01;73.94;99079.13;5583224;32;33169;-52
2023/03/10 05:14:16;;;;;;;12.55;7.00;;;;;;;6.82;78.09;99073.00;5582999;31;33541;-53
2023/03/10 05:17:18;;;;;;;17.33;7.25;;;;;;;6.72;75.38;99068.63;5563637;32;33717;-53
2023/03/10 05:20:21;;;;;;;15.85;6.68;;;;;;;6.78;78.92;99056.81;5563055;32;34236;-53
2023/03/10 05:23:24;;;;;;;14.55;6.72;;;;;;;6.99;73.68;99051.22;5563224;32;33597;-53
2023/03/10 05:26:27;;;;;;;13.02;7.50;;;;;;;7.15;72.60;99055.25;5576009;32;33382;-52
2023/03/10 05:29:30;;;;;;;13.70;7.25;;;;;;;7.20;72.22;99055.16;5582732;31;33503;-53
2023/03/10 05:32:34;;;;;;;13.62;6.87;;;;;;;7.13;75.21;99045.94;5582806;31;33286;-53
2023/03/10 05:35:38;;;;;;;13.00;7.55;;;;;;;7.14;74.12;99039.53;5582801;31;33281;-53
2023/03/10 05:38:42;;;;;;;13.38;6.85;;;;;;;6.99;76.02;99040.56;5582765;31;34820;-53
2023/03/10 05:41:45;;;;;;;15.88;8.93;;;;;;;7.38;73.35;99040.19;5582367;31;33456;-53
2023/03/10 05:44:48;;;;;;;12.65;8.20;;;;;;;7.62;72.18;99044.62;5582377;32;34388;-53
2023/03/10 05:47:50;;;;;;;14.38;7.55;;;;;;;7.53;71.85;99039.97;5582261;31;33398;-54
2023/03/10 05:51:05;;;;;;;15.48;7.30;;;;;;;7.44;80.26;99030.25;5582680;31;34393;-53
2023/03/10 05:54:08;;;;;;;15.07;7.50;;;;;;;7.52;74.17;99030.38;5582592;31;33357;-53
2023/03/10 05:57:11;;;;;;;14.38;6.93;;;;;;;7.56;77.29;99027.13;5582438;31;33268;-53
2023/03/10 06:00:16;;;;;;;14.00;7.80;;;;;;;7.54;84.43;99022.88;5582353;31;33875;-53
2023/03/10 06:03:18;;;;;;;15.93;7.43;;;;;;;7.47;87.85;99014.44;5581465;31;33455;-53
2023/03/10 06:06:21;;;;;;;14.65;8.57;;;;;;;7.66;76.79;99026.97;5581818;31;33807;-53
2023/03/10 06:09:23;;;;;;;13.02;7.90;;;;;;;7.70;84.95;99003.94;5573592;32;34506;-53
2023/03/10 06:12:25;;;;;;;12.15;7.93;;;;;;;7.93;74.61;99012.84;5569370;32;33288;-53
2023/03/10 06:15:29;;;;;;;18.00;8.60;;;;;;;7.89;84.84;99014.53;5567146;32;33693;-53
2023/03/10 06:18:32;;;;;;;12.05;8.07;;;;;;;8.03;77.10;99022.56;5565300;32;33669;-53
2023/03/10 06:21:34;;;;;;;18.12;8.95;;;;;;;8.14;91.73;99015.91;5567609;32;34244;-53
2023/03/10 06:24:36;;;;;;;17.52;7.93;;;;;;;8.27;79.48;99012.44;5568708;32;34762;-53
2023/03/10 06:27:39;;;;;;;21.20;9.75;;;;;;;8.43;78.75;99018.31;5556641;32;34427;-54
2023/03/10 06:30:41;;;;;;;15.70;9.55;;;;;;;8.69;90.26;99021.22;5565561;32;34464;-53
2023/03/10 06:33:43;;;;;;;13.88;9.63;;;;;;;8.81;78.09;99010.03;5566000;32;33344;-56
2023/03/10 06:36:46;;;;;;;13.95;9.10;;;;;;;8.70;79.40;99002.22;5549127;32;33926;-54
2023/03/10 06:39:48;;;;;;;15.90;9.65;;;;;;;8.92;76.46;99001.47;5549604;32;33703;-53
2023/03/10 06:42:50;;;;;;;13.70;9.68;;;;;;;8.94;80.34;99001.97;5549782;32;33991;-53
2023/03/10 06:45:52;;;;;;;13.18;8.98;;;;;;;9.07;78.55;99004.88;5548921;32;33810;-54
2023/03/10 06:48:55;;;;;;;21.77;9.95;;;;;;;9.28;88.16;99007.88;5548542;32;33608;-54
2023/03/10 06:51:59;;;;;;;11.93;9.35;;;;;;;9.34;81.14;99003.97;5549202;32;33563;-54
2023/03/10 06:55:01;;;;;;;15.55;9.63;;;;;;;9.52;80.21;99007.53;5548932;32;33331;-54
2023/03/10 06:58:04;;;;;;;18.05;10.13;;;;;;;9.63;81.83;98995.47;5548917;32;34292;-54
2023/03/10 07:01:07;;;;;;;19.92;11.00;;;;;;;9.83;80.30;98996.81;5549435;32;33885;-54
2023/03/10 07:04:11;;;;;;;16.33;10.20;;;;;;;9.96;85.30;98998.59;5549183;32;33141;-55
2023/03/10 07:07:13;;;;;;;18.23;10.95;;;;;;;9.97;84.55;98992.16;5552214;32;34336;-53
2023/03/10 07:10:16;;;;;;;16.95;11.48;;;;;;;10.21;83.49;98997.13;5563684;32;33669;-54
2023/03/10 07:13:21;;;;;;;14.70;9.75;;;;;;;10.14;77.94;98994.09;5564692;32;33754;-53
2023/03/10 07:16:24;;;;;;;19.85;10.95;;;;;;;10.18;88.79;98996.94;5548767;32;34337;-53
2023/03/10 07:19:28;;;;;;;21.23;10.80;;;;;;;10.47;90.00;98996.41;5552439;32;34891;-55
2023/03/10 07:22:31;;;;;;;17.25;11.45;;;;;;;10.40;78.92;98998.75;5565705;32;33588;-54
2023/03/10 07:25:35;;;;;;;15.00;10.25;;;;;;;10.35;84.45;98988.97;5566815;32;33655;-55
2023/03/10 07:28:38;;;;;;;17.75;11.15;;;;;;;10.37;84.51;98991.38;5559366;32;33858;-53
2023/03/10 07:31:43;;;;;;;30.42;12.55;;;;;;;10.47;83.59;98983.81;5567760;32;34429;-54
2023/03/10 07:34:46;;;;;;;17.80;12.40;;;;;;;10.55;85.65;98982.22;5565769;32;33510;-54
2023/03/10 07:37:48;;;;;;;19.73;12.32;;;;;;;10.82;79.56;98984.59;5568132;32;33736;-55
2023/03/10 07:40:50;;;;;;;20.98;13.48;;;;;;;10.82;81.37;98986.50;5564690;32;33597;-54
2023/03/10 07:43:53;;;;;;;30.67;14.87;;;;;;;10.97;86.75;98995.97;5561020;32;33607;-54
2023/03/10 07:46:56;;;;;;;24.63;15.35;;;;;;;11.10;81.35;98988.88;5565709;32;33673;-53
2023/03/10 07:49:58;;;;;;;31.77;15.57;;;;;;;11.09;76.04;98988.06;5558581;32;34421;-54
2023/03/10 07:53:01;;;;;;;33.53;14.85;;;;;;;11.13;83.63;98980.97;5565215;32;33581;-53
2023/03/10 07:56:08;;;;;;;25.40;13.85;;;;;;;11.34;76.00;98972.25;5565791;32;34300;-55
2023/03/10 07:59:11;;;;;;;23.12;13.55;;;;;;;11.44;85.08;98963.87;5559493;32;32844;-54
2023/03/10 08:02:13;;;;;;;21.73;13.32;;;;;;;11.56;86.94;98964.00;5567615;32;34435;-54
2023/03/10 08:05:16;;;;;;;25.67;12.90;;;;;;;11.71;77.05;98959.97;5567255;32;33662;-55
2023/03/10 08:08:19;;;;;;;21.17;12.90;;;;;;;11.97;95.96;98962.59;5567488;32;33679;-53
2023/03/10 08:11:22;;;;;;;17.98;12.23;;;;;;;12.01;79.66;98963.50;5566634;32;34758;-53
2023/03/10 08:14:27;;;;;;;16.73;11.05;;;;;;;12.01;82.13;98957.34;5564487;32;34300;-53
2023/03/10 08:17:32;;;;;;;19.62;10.55;;;;;;;12.26;85.65;98955.66;5564954;32;34509;-53
2023/03/10 08:20:34;;;;;;;18.80;10.13;;;;;;;12.29;84.32;98938.88;5565718;32;33755;-54
2023/03/10 08:23:38;;;;;;;28.15;11.90;;;;;;;12.49;91.00;98931.94;5566444;32;34273;-53
2023/03/10 08:26:40;;;;;;;19.17;11.18;;;;;;;12.56;80.04;98926.81;5566958;32;34014;-54
2023/03/10 08:29:43;;;;;;;17.55;10.48;;;;;;;12.64;83.72;98920.56;5567029;32;33887;-55
2023/03/10 08:32:45;;;;;;;17.83;10.45;;;;;;;12.81;80.52;98908.88;5566219;32;33008;-54
2023/03/10 08:35:47;;;;;;;21.02;9.82;;;;;;;12.59;74.37;98920.78;5567251;32;33555;-54
2023/03/10 08:38:52;;;;;;;31.25;10.90;;;;;;;12.57;74.67;98921.09;5566906;32;32110;-54
2023/03/10 08:41:55;;;;;;;30.60;11.38;;;;;;;12.68;85.62;98916.91;5564961;32;33600;-54
2023/03/10 08:44:57;;;;;;;19.83;12.40;;;;;;;12.89;81.34;98908.03;5565868;32;33342;-54
2023/03/10 08:48:00;;;;;;;22.17;11.70;;;;;;;12.75;74.08;98910.19;5565170;32;33506;-56
2023/03/10 08:51:03;;;;;;;20.75;11.80;;;;;;;12.84;82.62;98897.47;5565290;32;33036;-54
2023/03/10 08:54:07;;;;;;;19.92;12.32;;;;;;;13.09;76.84;98892.94;5564650;32;33609;-55
2023/03/10 08:57:09;;;;;;;24.42;12.30;;;;;;;13.02;72.76;98890.81;5563993;32;33711;-55
2023/03/10 09:00:12;;;;;;;17.87;11.50;;;;;;;13.12;81.92;98890.38;5562095;32;33518;-54
2023/03/10 09:03:18;;;;;;;15.48;11.95;;;;;;;13.08;71.97;98886.78;5565294;32;34217;-54
2023/03/10 09:06:21;;;;;;;29.73;11.88;;;;;;;13.14;73.17;98885.47;5565630;32;33618;-54
2023/03/10 09:09:24;;;;;;;19.45;10.20;;;;;;;13.16;72.47;98885.91;5561139;32;33218;-54
2023/03/10 09:12:26;;;;;;;13.90;8.90;;;;;;;13.31;74.57;98884.50;5562188;32;34345;-54
2023/03/10 09:15:40;;;;;;;13.52;8.55;;;;;;;13.40;72.85;98884.38;5562399;32;33627;-53
2023/03/10 09:18:42;;;;;;;;;;;;;;;13.40;71.87;98890.56;5562746;32;33657;-54
2023/03/10 09:21:46;;;;;;;19.65;11.18;;;;;;;13.45;73.21;98886.88;5558729;32;34045;-54
2023/03/10 09:24:49;;;;;;;25.65;15.50;;;;;;;13.60;82.05;98874.63;5556517;32;34305;-53
2023/03/10 09:27:51;;;;;;;23.40;15.93;;;;;;;13.76;78.43;98878.22;5558812;32;34312;-53
2023/03/10 09:30:53;;;;;;;18.45;12.77;;;;;;;13.93;73.87;98863.72;5561675;32;33755;-55
2023/03/10 09:33:56;;;;;;;16.65;11.98;;;;;;;14.00;86.78;98860.47;5554386;32;34347;-54
2023/03/10 09:36:58;;;;;;;16.15;10.60;;;;;;;14.04;72.80;98851.38;5557525;32;33626;-55
2023/03/10 09:40:01;;;;;;;14.50;8.27;;;;;;;14.10;74.72;98844.63;5554037;32;34393;-54
2023/03/10 09:43:16;;;;;;;15.02;8.05;;;;;;;14.13;77.13;98842.37;5556997;32;34233;-55
2023/03/10 09:46:49;;;;;;;11.30;7.20;;;;;;;14.33;82.54;98827.94;5562790;31;33482;-55
2023/03/10 09:49:51;;;;;;;14.00;7.57;;;;;;;14.25;74.11;98820.78;5533963;31;33631;-54
2023/03/10 09:53:18;;;;;;;14.35;7.78;;;;;;;14.31;80.28;98814.81;5558497;32;33580;-53
2023/03/10 09:56:27;;;;;;;15.40;7.65;;;;;;;14.49;77.85;98825.28;5561362;32;33587;-54
2023/03/10 09:59:39;;;;;;;15.50;8.30;;;;;;;14.46;75.04;98818.66;5560517;32;33708;-53
2023/03/10 10:02:46;;;;;;;15.45;7.32;;;;;;;14.39;72.23;98815.00;5558028;32;32432;-54
2023/03/10 10:05:52;;;;;;;13.43;8.13;;;;;;;14.46;76.79;98815.19;5559481;32;33398;-54
2023/03/10 10:09:03;;;;;;;16.35;7.82;;;;;;;14.65;76.67;98807.25;5558638;32;33653;-53
2023/03/10 10:12:25;;;;;;;17.70;7.43;;;;;;;14.84;76.60;98793.12;5556933;32;34433;-54
2023/03/10 10:15:30;;;;;;;17.75;6.85;;;;;;;14.99;77.97;98783.44;5555548;32;33408;-54
2023/03/10 10:18:41;;;;;;;15.68;6.87;;;;;;;14.98;74.51;98776.50;5560223;32;33652;-53
2023/03/10 10:22:09;;;;;;;10.60;5.45;;;;;;;14.99;71.15;98767.25;5559367;32;33008;-54
2023/03/10 10:25:23;;;;;;;16.15;6.37;;;;;;;15.15;74.27;98756.47;5561164;32;33677;-55
2023/03/10 10:28:40;;;;;;;13.32;5.90;;;;;;;15.26;72.16;98752.06;5559505;32;34031;-54
2023/03/10 10:32:08;;;;;;;9.77;5.70;;;;;;;15.36;66.95;98746.13;5556546;32;33933;-54
2023/03/10 10:35:14;;;;;;;13.70;5.30;;;;;;;15.44;66.47;98747.09;5559155;32;33800;-54
2023/03/10 10:38:23;;;;;;;14.70;6.00;;;;;;;15.46;66.60;98737.50;5559894;32;34379;-54
2023/03/10 10:41:31;;;;;;;10.52;5.87;;;;;;;15.46;66.13;98732.12;5554404;32;34402;-55
2023/03/10 10:44:42;;;;;;;22.70;6.43;;;;;;;15.60;72.48;98738.97;5560020;32;33845;-54
2023/03/10 10:47:50;;;;;;;13.18;6.32;;;;;;;15.51;67.19;98722.94;5554995;32;34483;-54
2023/03/10 10:50:53;;;;;;;12.63;6.75;;;;;;;15.58;66.26;98722.31;5559001;32;33633;-55
2023/03/10 10:53:57;;;;;;;11.23;5.90;;;;;;;15.63;68.49;98724.72;5559221;32;34450;-54
2023/03/10 10:57:00;;;;;;;11.85;5.85;;;;;;;15.68;67.65;98719.87;5557196;32;33636;-54
2023/03/10 11:00:25;;;;;;;11.20;5.87;;;;;;;15.74;71.66;98720.37;5554936;32;33705;-55
2023/03/10 11:03:40;;;;;;;10.75;5.50;;;;;;;15.89;66.93;98716.84;5557332;32;33616;-54
2023/03/10 11:06:43;;;;;;;10.82;5.60;;;;;;;15.88;68.97;98712.53;5558198;32;34316;-54
2023/03/10 11:09:46;;;;;;;14.70;6.00;;;;;;;15.90;67.14;98702.19;5556475;32;34658;-54
2023/03/10 11:12:49;;;;;;;13.43;5.62;;;;;;;16.01;66.68;98694.25;5560451;32;34330;-54
2023/03/10 11:16:10;;;;;;;13.40;5.68;;;;;;;16.12;65.84;98686.34;5556311;32;33638;-54
2023/03/10 11:19:50;;;;;;;7.95;5.07;;;;;;;16.07;65.18;98670.44;5562022;32;34433;-54
2023/03/10 11:22:55;;;;;;;15.73;6.10;;;;;;;16.10;66.45;98659.69;5554681;32;33609;-53
2023/03/10 11:26:09;;;;;;;11.97;4.77;;;;;;;16.29;67.58;98658.87;5560796;32;34034;-54
2023/03/10 11:29:21;;;;;;;9.70;4.40;;;;;;;16.34;65.19;98663.97;5557888;32;32992;-54
2023/03/10 11:32:29;;;;;;;12.15;4.20;;;;;;;16.34;63.50;98655.84;5558951;32;34413;-54
2023/03/10 11:35:44;;;;;;;10.65;4.75;;;;;;;16.34;62.87;98647.75;5555794;32;33613;-54
2023/03/10 11:38:50;;;;;;;9.90;4.30;;;;;;;16.26;63.56;98637.97;5554401;32;33610;-54
2023/03/10 11:42:20;;;;;;;13.60;4.57;;;;;;;16.34;63.96;98631.53;5563190;32;34492;-55
2023/03/10 11:45:44;;;;;;;17.40;5.87;;;;;;;16.37;61.47;98622.69;5563179;32;34433;-54
2023/03/10 11:49:00;;;;;;;9.65;4.53;;;;;;;16.48;61.05;98616.66;5555753;32;33644;-54
2023/03/10 11:52:12;;;;;;;11.10;4.45;;;;;;;16.54;62.71;98610.59;5567836;32;33672;-55
2023/03/10 11:55:20;;;;;;;12.37;4.55;;;;;;;16.61;70.30;98605.28;5567464;32;33678;-55
2023/03/10 11:58:31;;;;;;;7.30;4.30;;;;;;;16.56;61.78;98599.44;5563460;32;34460;-55
2023/03/10 12:01:57;;;;;;;10.48;4.68;;;;;;;16.50;62.98;98590.06;5552385;32;34631;-54
2023/03/10 12:05:15;;;;;;;12.45;4.05;;;;;;;16.54;62.80;98578.13;5565875;32;33570;-54
2023/03/10 12:08:22;;;;;;;9.07;4.53;;;;;;;16.54;62.69;98570.00;5563435;32;34427;-54
2023/03/10 12:11:27;;;;;;;10.77;4.30;;;;;;;16.55;71.04;98568.09;5564054;32;33780;-54
2023/03/10 12:14:31;;;;;;;9.23;4.25;;;;;;;16.57;67.09;98563.88;5556983;32;34524;-55
2023/03/10 12:17:36;;;;;;;8.68;4.75;;;;;;;16.63;65.86;98548.91;5567994;32;33349;-54
2023/03/10 12:20:38;;;;;;;6.62;3.70;;;;;;;16.72;64.48;98555.97;5558043;32;33766;-55
2023/03/10 12:23:46;;;;;;;8.00;3.47;;;;;;;16.64;63.48;98547.75;5561890;32;33701;-54
2023/03/10 12:27:02;;;;;;;8.75;3.55;;;;;;;16.61;63.51;98534.19;5558546;32;34224;-54
2023/03/10 12:30:44;;;;;;;7.43;3.40;;;;;;;16.62;62.98;98528.41;5550621;32;33748;-54
2023/03/10 12:33:49;;;;;;;7.30;4.32;;;;;;;16.71;64.11;98517.31;5556753;32;33310;-54
2023/03/10 12:36:54;;;;;;;8.13;3.15;;;;;;;16.76;65.34;98510.84;5555691;32;33612;-54
2023/03/10 12:39:56;;;;;;;8.10;3.75;;;;;;;16.76;63.75;98506.22;5551050;32;32805;-54
2023/03/10 12:43:40;;;;;;;9.32;3.50;;;;;;;16.75;64.16;98496.50;5547600;32;33802;-54
2023/03/10 12:46:47;;;;;;;8.55;3.17;;;;;;;16.78;63.26;98484.19;5555804;32;33603;-55
2023/03/10 12:49:50;;;;;;;9.13;4.12;;;;;;;16.66;66.62;98490.59;5559879;32;33814;-54
2023/03/10 12:53:12;;;;;;;4.43;3.00;;;;;;;16.74;67.85;98491.44;5554040;32;32480;-54
2023/03/10 12:56:14;;;;;;;8.48;3.10;;;;;;;16.71;67.00;98475.94;5560845;32;34345;-54
2023/03/10 12:59:40;;;;;;;12.57;3.20;;;;;;;16.67;63.93;98475.91;5552796;32;34387;-54
2023/03/10 13:02:49;;;;;;;18.08;3.25;;;;;;;16.74;65.49;98467.88;5561072;32;33776;-54
2023/03/10 13:06:05;;;;;;;7.90;3.03;;;;;;;16.76;65.51;98464.84;5566692;32;34424;-55
2023/03/10 13:09:26;;;;;;;5.28;2.30;;;;;;;16.79;65.49;98466.81;5565780;32;33047;-54
2023/03/10 13:12:47;;;;;;;5.80;2.58;;;;;;;16.89;65.16;98448.00;5567415;32;33798;-54
2023/03/10 13:16:05;;;;;;;4.60;2.17;;;;;;;16.96;65.74;98443.81;5567430;32;33623;-54
2023/03/10 13:19:19;;;;;;;4.97;2.30;;;;;;;16.91;63.49;98442.97;5568449;32;33723;-54
2023/03/10 13:22:22;;;;;;;6.43;2.85;;;;;;;16.95;62.07;98434.12;5550941;32;33560;-54
2023/03/10 13:25:25;;;;;;;4.50;2.22;;;;;;;16.94;64.19;98437.97;5550370;32;33755;-54
2023/03/10 13:28:33;;;;;;;11.63;2.10;;;;;;;16.91;67.03;98432.16;5550819;32;33624;-55
2023/03/10 13:31:35;;;;;;;4.70;2.25;;;;;;;16.88;63.21;98437.53;5551008;32;33740;-54
2023/03/10 13:34:38;;;;;;;8.88;2.78;;;;;;;16.92;63.83;98435.66;5550685;32;33654;-54
2023/03/10 13:37:40;;;;;;;12.37;2.97;;;;;;;16.87;62.99;98435.97;5549794;32;33628;-54
2023/03/10 13:40:48;;;;;;;11.95;3.05;;;;;;;16.93;66.69;98426.38;5550570;32;33709;-54
2023/03/10 13:43:52;;;;;;;13.52;3.97;;;;;;;16.85;64.36;98409.28;5553930;32;33617;-54
2023/03/10 13:46:59;;;;;;;7.65;2.90;;;;;;;16.89;63.09;98418.22;5569139;32;33514;-54
2023/03/10 13:50:02;;;;;;;5.47;2.92;;;;;;;16.85;63.88;98409.28;5550609;32;33949;-54
2023/03/10 13:53:04;;;;;;;9.40;3.37;;;;;;;16.86;63.48;98410.06;5550695;32;33268;-54
2023/03/10 13:56:22;;;;;;;7.25;2.78;;;;;;;16.83;63.51;98406.16;5568698;32;34449;-54
2023/03/10 13:59:30;;;;;;;10.05;3.37;;;;;;;16.81;63.94;98404.97;5570160;32;33703;-54
2023/03/10 14:02:35;;;;;;;6.45;3.20;;;;;;;16.79;64.31;98404.59;5570155;32;34326;-54
2023/03/10 14:05:47;;;;;;;7.00;3.03;;;;;;;16.66;65.91;98406.72;5558385;32;33764;-54
2023/03/10 14:08:50;;;;;;;6.95;2.80;;;;;;;16.65;67.98;98405.16;5568949;32;33015;-54
2023/03/10 14:11:53;;;;;;;10.38;3.03;;;;;;;16.56;65.63;98404.66;5569096;32;34451;-54
2023/03/10 14:15:11;;;;;;;6.93;2.80;;;;;;;16.50;66.19;98400.72;5568928;32;33285;-54
2023/03/10 14:18:13;;;;;;;4.20;2.60;;;;;;;16.53;64.90;98389.19;5567553;31;33710;-54
2023/03/10 14:21:42;;;;;;;7.97;3.05;;;;;;;16.44;63.90;98390.22;5569312;32;34353;-54
2023/03/10 14:25:10;;;;;;;5.97;2.37;;;;;;;16.37;63.58;98387.44;5569541;32;34387;-54
2023/03/10 14:28:22;;;;;;;5.30;2.58;;;;;;;16.33;64.02;98397.44;5569829;32;34375;-54
2023/03/10 14:31:25;;;;;;;5.25;2.58;;;;;;;16.36;67.07;98394.00;5568389;32;33609;-56
2023/03/10 14:34:27;;;;;;;6.25;2.90;;;;;;;16.34;64.71;98388.16;5569339;32;33685;-55
2023/03/10 14:37:30;;;;;;;6.25;2.60;;;;;;;16.38;64.75;98386.28;5570184;32;34382;-54
2023/03/10 14:40:38;;;;;;;7.05;2.47;;;;;;;16.36;67.82;98382.41;5569679;32;33779;-54
2023/03/10 14:43:41;;;;;;;6.32;2.90;;;;;;;16.39;63.96;98381.62;5569662;32;34415;-55
2023/03/10 14:46:46;;;;;;;9.68;2.70;;;;;;;16.39;65.33;98378.94;5561919;32;34304;-54
2023/03/10 14:49:49;;;;;;;6.68;3.25;;;;;;;16.30;63.98;98373.81;5569096;32;33439;-54
2023/03/10 14:52:51;;;;;;;8.98;3.15;;;;;;;16.26;63.65;98369.50;5569614;32;33786;-54
2023/03/10 14:55:56;;;;;;;16.40;4.05;;;;;;;16.28;66.05;98367.22;5570048;32;34375;-54
2023/03/10 14:59:00;;;;;;;9.82;3.62;;;;;;;16.23;66.13;98357.50;5569825;32;33723;-54
2023/03/10 15:02:24;;;;;;;7.75;3.37;;;;;;;16.14;67.37;98343.47;5569505;32;33600;-54
2023/03/10 15:05:27;;;;;;;8.15;3.60;;;;;;;16.26;69.77;98350.56;5569620;32;34020;-54
2023/03/10 15:08:48;;;;;;;7.10;3.90;;;;;;;16.26;68.79;98350.56;5569870;32;33679;-54
2023/03/10 15:11:52;;;;;;;12.18;4.22;;;;;;;16.28;67.12;98346.37;5569627;32;33760;-54
2023/03/10 15:14:54;;;;;;;10.55;4.22;;;;;;;16.15;67.22;98339.63;5569669;32;34324;-54
2023/03/10 15:17:57;;;;;;;9.25;4.50;;;;;;;16.19;70.86;98346.66;5569676;32;33825;-55
2023/03/10 15:21:01;;;;;;;10.07;5.10;;;;;;;15.97;66.92;98345.59;5569318;32;33753;-55
2023/03/10 15:24:06;;;;;;;10.98;4.65;;;;;;;16.04;69.16;98347.59;5569656;32;33829;-54
2023/03/10 15:27:12;;;;;;;8.80;4.28;;;;;;;16.04;69.73;98357.63;5569312;32;34376;-55
2023/03/10 15:30:21;;;;;;;11.07;4.03;;;;;;;16.00;69.57;98340.59;5569303;32;33765;-56
2023/03/10 15:33:24;;;;;;;7.07;4.15;;;;;;;16.01;73.74;98344.84;5569164;32;34432;-55
2023/03/10 15:36:26;;;;;;;9.77;3.95;;;;;;;15.89;69.05;98359.34;5569586;32;33472;-55
2023/03/10 15:39:28;;;;;;;9.90;3.92;;;;;;;15.86;72.22;98357.38;5569245;32;33420;-55
2023/03/10 15:42:34;;;;;;;10.45;4.45;;;;;;;15.95;72.00;98345.16;5568648;32;34517;-54
2023/03/10 15:45:40;;;;;;;12.98;3.70;;;;;;;15.92;73.02;98348.59;5569390;32;34442;-54
2023/03/10 15:48:42;;;;;;;7.62;3.83;;;;;;;15.80;70.91;98345.34;5569018;32;33712;-54
2023/03/10 15:51:44;;;;;;;7.20;4.85;;;;;;;15.75;75.38;98354.53;5569350;32;33622;-54
2023/03/10 15:54:47;;;;;;;6.90;3.80;;;;;;;15.73;70.42;98354.91;5569262;32;33600;-54
2023/03/10 15:57:50;;;;;;;7.82;4.60;;;;;;;15.67;71.26;98342.06;5569146;32;33782;-54
2023/03/10 16:00:52;;;;;;;8.20;4.57;;;;;;;15.65;71.38;98349.72;5568683;32;33430;-54
2023/03/10 16:03:54;;;;;;;6.28;4.20;;;;;;;15.59;70.93;98348.47;5568652;32;33835;-54
2023/03/10 16:07:01;;;;;;;6.80;4.47;;;;;;;15.66;75.09;98345.88;5569330;32;33667;-54
2023/03/10 16:10:04;;;;;;;7.72;4.75;;;;;;;15.56;71.26;98346.47;5569121;32;33818;-54
2023/03/10 16:13:06;;;;;;;7.50;4.65;;;;;;;15.56;73.45;98336.44;5568882;32;34311;-55
2023/03/10 16:16:10;;;;;;;7.35;4.25;;;;;;;15.41;72.21;98332.78;5569068;32;33734;-54
2023/03/10 16:19:12;;;;;;;9.05;4.87;;;;;;;15.51;77.58;98324.06;5568881;32;34352;-54
2023/03/10 16:22:16;;;;;;;7.07;4.43;;;;;;;15.42;74.90;98326.22;5568964;32;33773;-54
2023/03/10 16:25:20;;;;;;;6.75;4.45;;;;;;;15.43;74.26;98327.00;5569020;32;33788;-54
2023/03/10 16:28:22;;;;;;;8.25;4.47;;;;;;;15.49;74.95;98328.25;5568678;32;33749;-54
2023/03/10 16:31:26;;;;;;;8.63;4.68;;;;;;;15.37;73.88;98337.34;5568538;32;34405;-54
2023/03/10 16:34:28;;;;;;;8.10;4.62;;;;;;;15.37;82.19;98329.25;5568557;32;33802;-53
